createdAt,value
2018-04-27T08:34:45.906Z,58.68
2018-04-27T08:37:13.549Z,58.30
2018-04-27T08:39:41.206Z,58.03
2018-04-27T08:42:08.909Z,56.32
2018-04-27T08:44:36.591Z,56.59
2018-04-27T08:47:04.244Z,55.40
2018-04-27T08:49:31.929Z,55.30
2018-04-27T08:51:59.537Z,55.65
2018-04-27T08:54:27.145Z,54.40
2018-04-27T08:56:54.776Z,54.27
2018-04-27T08:59:22.383Z,54.08
2018-04-27T09:01:50.021Z,54.82
2018-04-27T09:04:17.617Z,53.96
2018-04-27T09:06:45.287Z,53.96
2018-04-27T09:09:12.909Z,53.53
2018-04-27T09:11:40.557Z,52.17
2018-04-27T09:14:08.209Z,52.99
2018-04-27T09:16:35.891Z,50.50
2018-04-27T09:19:03.627Z,51.52
2018-04-27T09:21:31.479Z,50.28
2018-04-27T09:23:59.008Z,48.85
2018-04-27T09:26:26.714Z,48.79
2018-04-27T09:28:54.326Z,46.85
2018-04-27T09:31:21.909Z,47.99
2018-04-27T09:33:49.545Z,47.15
2018-04-27T09:36:17.362Z,47.75
2018-04-27T09:38:45.124Z,47.59
2018-04-27T09:41:13.215Z,48.21
2018-04-27T09:43:40.993Z,46.44
2018-04-27T09:46:08.693Z,46.85
2018-04-27T09:48:36.401Z,47.33
2018-04-27T09:51:04.165Z,45.53
2018-04-27T09:53:31.882Z,45.50
2018-04-27T09:55:59.655Z,45.61
2018-04-27T09:58:27.553Z,46.36
2018-04-27T10:00:55.277Z,44.91
2018-04-27T10:03:22.914Z,45.11
2018-04-27T10:05:50.778Z,45.16
2018-04-27T10:08:18.498Z,43.30
2018-04-27T10:10:46.173Z,42.67
2018-04-27T10:13:13.809Z,43.45
2018-04-27T10:15:41.458Z,43.54
2018-04-27T10:18:09.114Z,42.31
2018-04-27T10:20:36.749Z,41.10
2018-04-27T10:23:04.356Z,40.44
2018-04-27T10:25:32.015Z,40.35
2018-04-27T10:27:59.698Z,39.72
2018-04-27T10:30:27.365Z,39.67
2018-04-27T10:32:54.991Z,39.18
2018-04-27T10:35:22.606Z,40.30
2018-04-27T10:37:50.378Z,39.39
2018-04-27T10:40:18.039Z,39.55
2018-04-27T10:42:45.660Z,39.05
2018-04-27T10:45:13.285Z,38.08
2018-04-27T10:47:40.938Z,39.04
2018-04-27T10:50:08.646Z,39.10
2018-04-27T10:52:36.411Z,39.66
2018-04-27T10:55:04.003Z,37.80
2018-04-27T10:57:31.732Z,38.69
2018-04-27T10:59:59.451Z,39.76
2018-04-27T11:02:27.125Z,38.42
2018-04-27T11:04:58.210Z,38.47
2018-04-27T11:07:26.480Z,38.41
2018-04-27T11:09:54.554Z,37.93
2018-04-27T11:12:22.523Z,36.58
2018-04-27T11:14:50.595Z,37.73
2018-04-27T11:17:19.754Z,38.60
2018-04-27T11:19:47.966Z,36.68
2018-04-27T11:22:16.546Z,37.73
2018-04-27T11:24:44.518Z,38.81
2018-04-27T11:27:12.253Z,38.85
2018-04-27T11:29:41.350Z,39.09
2018-04-27T11:32:09.318Z,38.94
2018-04-27T11:34:37.049Z,37.49
2018-04-27T11:37:04.632Z,38.57
2018-04-27T11:39:32.269Z,39.27
2018-04-27T11:41:59.885Z,40.22
2018-04-27T11:44:27.751Z,40.09
2018-04-27T11:46:55.372Z,39.19
2018-04-27T11:49:23.090Z,38.98
2018-04-27T11:51:50.716Z,37.88
2018-04-27T11:54:18.354Z,38.53
2018-04-27T11:56:46.048Z,37.13
2018-04-27T11:59:13.711Z,38.09
2018-04-27T12:01:41.390Z,38.36
2018-04-27T12:04:09.149Z,38.80
2018-04-27T12:06:36.764Z,37.07
2018-04-27T12:09:04.378Z,37.29
2018-04-27T12:11:32.038Z,36.18
2018-04-27T12:13:59.715Z,34.12
2018-04-27T12:16:27.590Z,34.72
2018-04-27T12:18:55.217Z,34.54
2018-04-27T12:21:22.857Z,34.91
2018-04-27T12:23:50.513Z,34.12
2018-04-27T12:26:18.259Z,33.68
2018-04-27T12:28:45.879Z,34.40
2018-04-27T12:31:13.647Z,33.49
2018-04-27T12:33:41.297Z,32.58
2018-04-27T12:36:09.054Z,32.13
2018-04-27T12:38:36.649Z,31.96
2018-04-27T12:41:04.341Z,33.82
2018-04-27T12:43:31.955Z,32.97
2018-04-27T12:45:59.535Z,34.21
2018-04-27T12:48:27.190Z,33.70
2018-04-27T12:50:54.873Z,34.08
2018-04-27T12:53:22.591Z,34.50
2018-04-27T12:55:50.209Z,34.13
2018-04-27T12:58:18.715Z,34.15
2018-04-27T13:00:46.391Z,34.66
2018-04-27T13:03:14.114Z,34.31
2018-04-27T13:05:41.818Z,34.95
2018-04-27T13:08:09.440Z,34.56
2018-04-27T13:10:37.051Z,33.38
2018-04-27T13:13:04.722Z,34.23
2018-04-27T13:15:32.316Z,33.83
2018-04-27T13:17:59.977Z,35.43
2018-04-27T13:20:27.682Z,35.38
2018-04-27T13:22:55.370Z,34.92
2018-04-27T13:25:23.076Z,33.87
2018-04-27T13:27:50.707Z,34.31
2018-04-27T13:30:18.405Z,33.55
2018-04-27T13:32:46.085Z,34.32
2018-04-27T13:35:13.810Z,33.72
2018-04-27T13:37:41.419Z,33.69
2018-04-27T13:40:09.075Z,34.29
2018-04-27T13:42:36.672Z,33.61
2018-04-27T13:45:04.313Z,33.48
2018-04-27T13:47:31.924Z,33.90
2018-04-27T13:49:59.552Z,32.85
2018-04-27T13:52:27.166Z,33.21
2018-04-27T13:54:54.819Z,32.86
2018-04-27T13:57:22.526Z,32.66
2018-04-27T13:59:50.131Z,33.12
2018-04-27T14:02:17.790Z,32.71
2018-04-27T14:04:45.427Z,32.63
2018-04-27T14:07:13.137Z,32.57
2018-04-27T14:09:40.759Z,32.22
2018-04-27T14:12:08.364Z,32.53
2018-04-27T14:14:35.991Z,33.08
2018-04-27T14:17:03.654Z,31.75
2018-04-27T14:19:31.376Z,29.77
2018-04-27T14:21:59.061Z,31.44
2018-04-27T14:24:26.676Z,30.06
2018-04-27T14:26:54.414Z,29.04
2018-04-27T14:29:22.105Z,30.23
2018-04-27T14:31:49.793Z,30.45
2018-04-27T14:34:17.444Z,28.88
2018-04-27T14:36:45.156Z,28.65
2018-04-27T14:39:12.799Z,28.94
2018-04-27T14:41:40.459Z,29.47
2018-04-27T14:44:08.113Z,28.50
2018-04-27T14:46:35.736Z,28.00
2018-04-27T14:49:03.528Z,27.46
2018-04-27T14:51:31.094Z,27.63
2018-04-27T14:53:58.746Z,28.35
2018-04-27T14:56:27.260Z,28.90
2018-04-27T14:58:54.895Z,29.44
2018-04-27T15:01:22.486Z,28.36
2018-04-27T15:03:50.164Z,28.93
2018-04-27T15:06:17.798Z,28.74
2018-04-27T15:08:45.501Z,28.62
2018-04-27T15:11:13.126Z,28.41
2018-04-27T15:13:40.733Z,29.46
2018-04-27T15:16:08.363Z,30.57
2018-04-27T15:18:35.969Z,30.86
2018-04-27T15:21:03.622Z,30.51
2018-04-27T15:23:31.218Z,30.19
2018-04-27T15:25:58.868Z,29.17
2018-04-27T15:28:26.496Z,29.44
2018-04-27T15:30:54.113Z,29.24
2018-04-27T15:33:21.731Z,29.97
2018-04-27T15:35:49.457Z,29.97
2018-04-27T15:38:17.077Z,30.04
2018-04-27T15:40:44.749Z,29.09
2018-04-27T15:43:12.420Z,30.36
2018-04-27T15:45:40.058Z,29.35
2018-04-27T15:48:07.745Z,30.20
2018-04-27T15:50:35.361Z,31.00
2018-04-27T15:53:02.985Z,31.29
2018-04-27T15:55:30.787Z,31.58
2018-04-27T15:57:58.442Z,30.90
2018-04-27T16:00:26.054Z,31.25
2018-04-27T16:02:53.716Z,31.35
2018-04-27T16:05:21.337Z,31.91
2018-04-27T16:07:49.061Z,32.15
2018-04-27T16:10:16.680Z,32.07
2018-04-27T16:12:44.304Z,32.03
2018-04-27T16:15:11.946Z,31.45
2018-04-27T16:17:39.593Z,31.64
2018-04-27T16:20:07.205Z,31.14
2018-04-27T16:22:34.801Z,30.90
2018-04-27T16:25:02.452Z,32.07
2018-04-27T16:27:30.073Z,32.60
2018-04-27T16:29:57.692Z,32.06
2018-04-27T16:32:25.372Z,31.42
2018-04-27T16:34:53.026Z,31.91
2018-04-27T16:37:20.622Z,31.69
2018-04-27T16:39:48.270Z,31.53
2018-04-27T16:42:15.890Z,31.36
2018-04-27T16:44:43.532Z,31.70
2018-04-27T16:47:11.148Z,31.52
2018-04-27T16:49:38.801Z,32.20
2018-04-27T16:52:06.411Z,32.52
2018-04-27T16:54:34.093Z,33.04
2018-04-27T16:57:01.658Z,33.59
2018-04-27T16:59:29.393Z,32.98
2018-04-27T17:01:56.985Z,33.77
2018-04-27T17:04:24.581Z,34.11
2018-04-27T17:06:52.320Z,33.85
2018-04-27T17:09:19.913Z,34.28
2018-04-27T17:11:47.547Z,33.46
2018-04-27T17:14:15.152Z,33.31
2018-04-27T17:16:42.779Z,33.62
2018-04-27T17:19:10.418Z,33.77
2018-04-27T17:21:38.093Z,34.46
2018-04-27T17:24:05.758Z,34.73
2018-04-27T17:26:33.451Z,34.67
2018-04-27T17:29:01.005Z,34.14
2018-04-27T17:31:28.727Z,34.22
2018-04-27T17:33:56.389Z,34.64
2018-04-27T17:36:24.139Z,34.81
2018-04-27T17:38:51.779Z,35.14
2018-04-27T17:41:19.401Z,35.41
2018-04-27T17:43:47.025Z,35.49
2018-04-27T17:46:14.774Z,35.16
2018-04-27T17:48:42.565Z,35.43
2018-04-27T17:51:10.109Z,35.35
2018-04-27T17:53:37.888Z,35.27
2018-04-27T17:56:05.517Z,35.24
2018-04-27T17:58:33.185Z,35.62
2018-04-27T18:01:00.925Z,35.47
2018-04-27T18:03:28.586Z,35.99
2018-04-27T18:05:56.255Z,36.34
2018-04-27T18:08:23.924Z,36.01
2018-04-27T18:10:51.650Z,36.37
2018-04-27T18:13:19.476Z,36.51
2018-04-27T18:15:47.242Z,36.71
2018-04-27T18:18:15.155Z,36.78
2018-04-27T18:20:42.847Z,36.93
2018-04-27T18:23:10.494Z,37.34
2018-04-27T18:25:38.329Z,37.04
2018-04-27T18:28:06.030Z,37.35
2018-04-27T18:30:33.948Z,37.12
2018-04-27T18:33:01.572Z,37.16
2018-04-27T18:35:29.761Z,37.77
2018-04-27T18:37:57.348Z,37.96
2018-04-27T18:40:27.295Z,38.04
2018-04-27T18:42:54.908Z,38.28
2018-04-27T18:45:22.701Z,38.35
2018-04-27T18:47:50.666Z,38.51
2018-04-27T18:50:18.509Z,38.90
2018-04-27T18:52:46.259Z,38.97
2018-04-27T18:55:14.099Z,39.16
2018-04-27T18:57:42.058Z,39.27
2018-04-27T19:00:09.857Z,39.27
2018-04-27T19:02:37.763Z,39.49
2018-04-27T19:05:05.730Z,39.71
2018-04-27T19:07:33.587Z,39.96
2018-04-27T19:10:01.446Z,40.11
2018-04-27T19:12:29.628Z,39.88
2018-04-27T19:14:57.849Z,40.37
2018-04-27T19:17:25.970Z,40.61
2018-04-27T19:19:53.724Z,41.21
2018-04-27T19:22:37.881Z,41.08
2018-04-27T19:25:05.715Z,41.55
2018-04-27T19:27:33.580Z,42.00
2018-04-27T19:30:01.491Z,41.90
2018-04-27T19:32:29.740Z,42.17
2018-04-27T19:34:57.621Z,41.94
2018-04-27T19:37:26.072Z,42.18
2018-04-27T19:39:54.873Z,42.31
2018-04-27T19:42:22.753Z,42.49
2018-04-27T19:44:50.623Z,42.23
2018-04-27T19:47:18.662Z,41.94
2018-04-27T19:49:46.571Z,42.01
2018-04-27T19:52:14.745Z,42.03
2018-04-27T19:54:42.560Z,41.46
2018-04-27T19:57:11.193Z,41.48
2018-04-27T19:59:40.238Z,41.44
2018-04-27T20:02:07.926Z,41.17
2018-04-27T20:04:35.788Z,40.76
2018-04-27T20:07:03.599Z,40.62
2018-04-27T20:09:31.330Z,40.22
2018-04-27T20:11:59.226Z,40.83
2018-04-27T20:14:43.746Z,42.20
2018-04-27T20:17:11.487Z,42.85
2018-04-27T20:19:41.847Z,43.07
2018-04-27T20:22:22.724Z,43.44
2018-04-27T20:24:50.463Z,43.29
2018-04-27T20:27:20.852Z,43.77
2018-04-27T20:29:48.791Z,43.72
2018-04-27T20:32:17.365Z,43.86
2018-04-27T20:34:45.918Z,43.21
2018-04-27T20:37:13.773Z,44.06
2018-04-27T20:39:41.883Z,43.58
2018-04-27T20:42:09.936Z,43.15
2018-04-27T20:44:37.714Z,43.27
2018-04-27T20:47:05.344Z,43.93
2018-04-27T20:49:33.620Z,43.54
2018-04-27T20:52:01.372Z,43.48
2018-04-27T20:54:29.065Z,43.44
2018-04-27T20:56:56.870Z,43.26
2018-04-27T20:59:24.547Z,43.55
2018-04-27T21:01:52.378Z,43.69
2018-04-27T21:04:20.041Z,43.80
2018-04-27T21:06:47.983Z,43.85
2018-04-27T21:09:15.942Z,44.05
2018-04-27T21:11:46.015Z,43.81
2018-04-27T21:14:13.794Z,44.18
2018-04-27T21:16:41.552Z,44.26
2018-04-27T21:19:09.311Z,44.38
2018-04-27T21:21:37.257Z,44.36
2018-04-27T21:24:04.914Z,44.35
2018-04-27T21:26:34.145Z,44.58
2018-04-27T21:29:01.845Z,44.66
2018-04-27T21:31:29.559Z,45.00
2018-04-27T21:33:58.020Z,45.05
2018-04-27T21:36:28.634Z,45.19
2018-04-27T21:39:08.492Z,45.12
2018-04-27T21:44:31.653Z,45.16
2018-04-27T21:47:05.561Z,45.44
2018-04-27T21:49:33.149Z,45.62
2018-04-27T21:52:01.412Z,46.04
2018-04-27T21:54:31.031Z,45.63
2018-04-27T21:57:17.423Z,45.55
2018-04-27T21:59:45.023Z,45.54
2018-04-27T22:05:41.843Z,45.86
2018-04-27T22:08:25.795Z,46.22
2018-04-27T22:10:54.271Z,46.35
2018-04-27T22:13:24.656Z,46.42
2018-04-27T22:15:52.201Z,46.47
2018-04-27T22:18:19.813Z,46.41
2018-04-27T22:20:47.602Z,46.27
2018-04-27T22:23:18.414Z,46.52
2018-04-27T22:25:46.749Z,46.57
2018-04-27T22:31:23.127Z,46.76
2018-04-27T22:33:54.392Z,46.79
2018-04-27T22:36:37.701Z,47.06
2018-04-27T22:42:08.280Z,47.16
2018-04-27T22:44:39.441Z,47.42
2018-04-27T22:47:07.057Z,47.32
2018-04-27T22:49:34.725Z,47.45
2018-04-27T22:52:02.605Z,47.54
2018-04-27T22:54:32.088Z,47.81
2018-04-27T22:57:01.419Z,47.97
2018-04-27T22:59:30.037Z,48.09
2018-04-27T23:02:00.720Z,48.12
2018-04-27T23:04:28.432Z,48.32
2018-04-27T23:06:56.467Z,48.71
2018-04-27T23:09:24.419Z,48.81
2018-04-27T23:11:52.081Z,48.79
2018-04-27T23:14:23.531Z,48.99
2018-04-27T23:16:52.918Z,48.84
2018-04-27T23:19:20.590Z,48.96
2018-04-27T23:22:01.920Z,49.24
2018-04-27T23:24:29.634Z,49.41
2018-04-27T23:26:57.982Z,49.75
2018-04-27T23:29:25.594Z,50.00
2018-04-27T23:31:53.327Z,50.10
2018-04-27T23:34:23.739Z,50.22
2018-04-27T23:36:55.349Z,50.42
2018-04-27T23:39:22.939Z,50.44
2018-04-27T23:41:50.690Z,50.65
2018-04-27T23:44:18.457Z,50.35
2018-04-27T23:46:46.085Z,50.38
2018-04-27T23:49:13.856Z,50.36
2018-04-27T23:51:41.492Z,50.58
2018-04-27T23:54:09.977Z,50.84
2018-04-27T23:56:39.052Z,50.81
2018-04-27T23:59:06.715Z,50.77
